Terminal Aerodrome Forecast
Issued by NWS

Home | Current Version | Previous Version | Text Only | Print | Product List | Glossary On
Versions: 1 2 3 4 5 6 7 8 9 10 11 12 13 14 15 16
000
FTUS43 KPAH 221120
TAFCGI
TAF
KCGI 221120Z 2212/2312 08012KT P6SM -SHRA SCT030 OVC070
     FM221500 09013G20KT 4SM -SHRA SCT015 OVC030
     FM221900 08015G25KT 3SM -SHRA SCT005 OVC015
     FM222300 08013G21KT 2SM -SHRA OVC005
     FM230500 05013G20KT 3SM -SHRA OVC006=

USA.gov is the U.S. government's official web portal to all federal, state and local government web resources and services.